Time,TemperatureF,DewpointF,PressureIn,WindDirection,WindDirectionDegrees,WindSpeedMPH,WindSpeedGustMPH,Humidity,HourlyPrecipIn,Conditions,Clouds,dailyrainin,SoftwareType,DateUTC
2013-08-16 00:21:00,54.0,52.0,30.13,South,184,0.0,0.0,92,0.00,,,0.00,,2013-08-16 05:21:00,
2013-08-16 02:00:00,52.0,50.0,30.11,South,184,0.0,2.0,93,0.00,,,0.00,,2013-08-16 07:00:00,
2013-08-16 02:11:00,52.0,50.0,30.12,South,184,0.0,1.0,93,0.00,,,0.00,,2013-08-16 07:11:00,
2013-08-16 02:21:00,52.0,50.0,30.12,South,184,0.0,0.0,94,0.00,,,0.00,,2013-08-16 07:21:00,
2013-08-16 02:52:00,51.0,49.0,30.11,South,184,0.0,0.0,94,0.00,,,0.00,,2013-08-16 07:52:00,
2013-08-16 03:21:00,50.0,48.0,30.11,South,184,0.0,0.0,94,0.00,,,0.00,,2013-08-16 08:21:00,
2013-08-16 03:52:00,51.0,50.0,30.12,South,184,0.0,0.0,95,0.00,,,0.00,,2013-08-16 08:52:00,
2013-08-16 04:21:00,51.0,49.0,30.12,South,184,0.0,0.0,94,0.00,,,0.00,,2013-08-16 09:21:00,
2013-08-16 04:53:00,51.0,50.0,30.13,South,184,0.0,0.0,95,0.00,,,0.00,,2013-08-16 09:53:00,
2013-08-16 05:23:00,50.0,49.0,30.13,South,184,0.0,0.0,95,0.00,,,0.00,,2013-08-16 10:23:00,
2013-08-16 05:53:00,50.0,49.0,30.14,South,184,0.0,0.0,96,0.00,,,0.00,,2013-08-16 10:53:00,
2013-08-16 06:21:00,50.0,49.0,30.14,South,184,0.0,0.0,95,0.00,,,0.00,,2013-08-16 11:21:00,
2013-08-16 06:52:00,50.0,49.0,30.15,South,184,0.0,0.0,95,0.00,,,0.00,,2013-08-16 11:52:00,
2013-08-16 07:12:00,49.0,48.0,30.15,South,184,0.0,0.0,95,0.00,,,0.00,,2013-08-16 12:12:00,
2013-08-16 07:21:00,50.0,49.0,30.15,South,184,0.0,0.0,95,0.00,,,0.00,,2013-08-16 12:21:00,
2013-08-16 07:52:00,54.0,52.0,30.16,South,184,0.0,0.0,94,0.00,,,0.00,,2013-08-16 12:52:00,
2013-08-16 08:11:00,56.0,54.0,30.16,South,184,0.0,0.0,93,0.00,,,0.00,,2013-08-16 13:11:00,
2013-08-16 08:21:00,59.0,56.0,30.17,South,184,0.0,0.0,91,0.00,,,0.00,,2013-08-16 13:21:00,
2013-08-16 08:53:00,61.0,56.0,30.17,South,184,1.0,3.0,85,0.00,,,0.00,,2013-08-16 13:53:00,
2013-08-16 09:22:00,66.0,59.0,30.17,NE,39,1.0,5.0,77,0.00,,,0.00,,2013-08-16 14:22:00,
2013-08-16 09:52:00,69.0,60.0,30.17,NE,53,2.0,5.0,74,0.00,,,0.00,,2013-08-16 14:52:00,
2013-08-16 10:22:00,71.0,60.0,30.17,East,89,2.0,6.0,69,0.00,,,0.00,,2013-08-16 15:22:00,
2013-08-16 10:56:00,72.0,59.0,30.17,NE,50,3.0,5.0,63,0.00,,,0.00,,2013-08-16 15:56:00,
2013-08-16 11:23:00,75.0,58.0,30.17,East,84,2.0,5.0,55,0.00,,,0.00,,2013-08-16 16:23:00,
2013-08-16 11:57:00,77.0,59.0,30.17,SE,143,2.0,6.0,54,0.00,,,0.00,,2013-08-16 16:57:00,
2013-08-16 12:28:00,76.0,59.0,30.17,NE,39,2.0,6.0,56,0.00,,,0.00,,2013-08-16 17:28:00,
2013-08-16 13:00:00,80.0,57.0,30.16,East,101,5.0,9.0,46,0.00,,,0.00,,2013-08-16 18:00:00,
2013-08-16 13:28:00,76.0,57.0,30.16,ENE,69,1.0,4.0,51,0.00,,,0.00,,2013-08-16 18:28:00,
2013-08-16 13:50:00,-999.0,-99.9,30.15,ESE,117,3.0,8.0,49,0.00,,,0.00,,2013-08-16 18:50:00,
2013-08-16 13:55:00,79.0,58.0,30.15,ESE,117,3.0,8.0,49,0.00,,,0.00,,2013-08-16 18:55:00,
2013-08-16 14:14:00,79.0,59.0,30.15,ESE,116,2.0,7.0,50,0.00,,,0.00,,2013-08-16 19:14:00,
2013-08-16 14:25:00,77.0,58.0,30.14,East,86,1.0,5.0,52,0.00,,,0.00,,2013-08-16 19:25:00,
2013-08-16 14:55:00,78.0,57.0,30.14,ENE,64,2.0,5.0,48,0.00,,,0.00,,2013-08-16 19:55:00,
2013-08-16 15:11:00,79.0,58.0,30.14,NNE,22,0.0,4.0,49,0.00,,,0.00,,2013-08-16 20:11:00,
2013-08-16 15:23:00,79.0,57.0,30.13,ESE,112,2.0,5.0,47,0.00,,,0.00,,2013-08-16 20:23:00,
2013-08-16 15:52:00,77.0,56.0,30.13,NE,39,4.0,8.0,49,0.00,,,0.00,,2013-08-16 20:52:00,
2013-08-16 16:25:00,79.0,56.0,30.13,ESE,111,2.0,7.0,46,0.00,,,0.00,,2013-08-16 21:25:00,
2013-08-16 16:40:00,-999.0,-99.9,30.13,ENE,60,0.0,5.0,-999,0.00,,,0.00,,2013-08-16 21:40:00,
2013-08-16 16:54:00,79.0,55.0,30.13,NE,40,2.0,5.0,44,0.00,,,0.00,,2013-08-16 21:54:00,
2013-08-16 17:24:00,76.0,58.0,30.13,East,79,4.0,5.0,53,0.00,,,0.00,,2013-08-16 22:24:00,
2013-08-16 17:52:00,78.0,58.0,30.13,ENE,65,3.0,7.0,50,0.00,,,0.00,,2013-08-16 22:52:00,
2013-08-16 18:23:00,76.0,58.0,30.13,East,92,2.0,5.0,53,0.00,,,0.00,,2013-08-16 23:23:00,
2013-08-16 18:52:00,77.0,55.0,30.13,ENE,66,2.0,5.0,46,0.00,,,0.00,,2013-08-16 23:52:00,
2013-08-16 19:21:00,76.0,56.0,30.13,East,82,0.0,3.0,50,0.00,,,0.00,,2013-08-17 00:21:00,
2013-08-16 19:42:00,76.0,57.0,30.13,ENE,67,0.0,3.0,51,0.00,,,0.00,,2013-08-17 00:42:00,
2013-08-16 19:52:00,75.0,57.0,30.13,ENE,67,0.0,2.0,54,0.00,,,0.00,,2013-08-17 00:52:00,
2013-08-16 20:11:00,72.0,60.0,30.14,ENE,67,0.0,0.0,65,0.00,,,0.00,,2013-08-17 01:11:00,
2013-08-16 20:21:00,70.0,59.0,30.13,ENE,67,0.0,0.0,68,0.00,,,0.00,,2013-08-17 01:21:00,
2013-08-16 20:42:00,69.0,60.0,30.13,ENE,67,0.0,0.0,72,0.00,,,0.00,,2013-08-17 01:42:00,
2013-08-16 21:21:00,65.0,58.0,30.14,ENE,67,0.0,0.0,79,0.00,,,0.00,,2013-08-17 02:21:00,
2013-08-16 21:42:00,63.0,57.0,30.15,ENE,67,0.0,0.0,80,0.00,,,0.00,,2013-08-17 02:42:00,
2013-08-16 21:52:00,62.0,57.0,30.15,ENE,67,0.0,0.0,83,0.00,,,0.00,,2013-08-17 02:52:00,
2013-08-16 22:22:00,61.0,57.0,30.15,ENE,67,0.0,0.0,86,0.00,,,0.00,,2013-08-17 03:22:00,
2013-08-16 22:53:00,61.0,58.0,30.16,ENE,67,0.0,0.0,90,0.00,,,0.00,,2013-08-17 03:53:00,
2013-08-16 23:23:00,58.0,55.0,30.16,ENE,67,0.0,0.0,91,0.00,,,0.00,,2013-08-17 04:23:00,
2013-08-16 23:53:00,57.0,54.0,30.16,ENE,67,0.0,0.0,91,0.00,,,0.00,,2013-08-17 04:53:00,